createdAt,value
2022-12-18T00:01:32.522Z,38.60
2022-12-18T00:04:02.128Z,34.50
2022-12-18T00:06:30.772Z,33.30
2022-12-18T00:08:58.966Z,32.30
2022-12-18T00:11:29.270Z,26.40
2022-12-18T00:13:59.336Z,32.70
2022-12-18T00:16:28.739Z,35.60
2022-12-18T00:18:58.445Z,30.40
2022-12-18T00:21:25.655Z,36.50
2022-12-18T00:23:52.820Z,34.30
2022-12-18T00:26:33.448Z,34.40
2022-12-18T00:29:09.127Z,39.10
2022-12-18T00:31:36.194Z,39.00
2022-12-18T00:34:03.366Z,37.30
2022-12-18T00:36:34.458Z,33.40
2022-12-18T00:39:04.801Z,35.30
2022-12-18T00:41:50.711Z,40.60
2022-12-18T00:44:20.152Z,38.60
2022-12-18T00:46:49.150Z,40.20
2022-12-18T00:49:20.716Z,41.30
2022-12-18T00:51:48.781Z,35.60
2022-12-18T00:54:16.262Z,39.50
2022-12-18T00:56:49.218Z,38.20
2022-12-18T00:59:18.522Z,37.50
2022-12-18T01:01:46.533Z,36.40
2022-12-18T01:04:13.549Z,35.10
2022-12-18T01:06:41.086Z,40.60
2022-12-18T01:09:07.786Z,36.70
2022-12-18T01:11:36.759Z,42.50
2022-12-18T01:14:05.214Z,34.80
2022-12-18T01:16:32.156Z,35.40
2022-12-18T01:18:58.950Z,41.40
2022-12-18T01:21:27.665Z,43.00
2022-12-18T01:23:57.382Z,33.20
2022-12-18T01:26:25.802Z,31.60
2022-12-18T01:28:52.922Z,36.00
2022-12-18T01:31:27.323Z,36.00
2022-12-18T01:33:56.277Z,33.20
2022-12-18T01:36:26.749Z,38.90
2022-12-18T01:38:54.302Z,35.30
2022-12-18T01:41:26.265Z,39.50
2022-12-18T01:44:00.543Z,40.00
2022-12-18T01:46:28.347Z,40.10
2022-12-18T01:49:01.607Z,35.50
2022-12-18T01:51:30.237Z,37.50
2022-12-18T01:53:59.714Z,34.10
2022-12-18T01:56:26.491Z,36.80
2022-12-18T01:59:06.142Z,34.80
2022-12-18T02:01:34.454Z,35.70
2022-12-18T02:04:26.354Z,37.20
2022-12-18T02:07:25.108Z,38.40
2022-12-18T02:10:14.626Z,31.20
2022-12-18T02:13:00.168Z,45.70
2022-12-18T02:15:45.261Z,38.80
2022-12-18T02:18:37.364Z,37.20
2022-12-18T02:21:39.465Z,36.10
2022-12-18T02:24:28.639Z,33.10
2022-12-18T02:27:06.550Z,45.00
2022-12-18T02:29:50.587Z,42.10
2022-12-18T02:32:28.061Z,39.40
2022-12-18T02:34:57.142Z,42.10
2022-12-18T02:37:26.907Z,38.40
2022-12-18T02:39:56.586Z,42.60
2022-12-18T02:42:24.076Z,38.30
2022-12-18T02:44:53.127Z,41.00
2022-12-18T02:47:29.523Z,41.10
2022-12-18T02:49:59.330Z,39.30
2022-12-18T02:53:12.537Z,46.20
2022-12-18T02:55:57.545Z,45.60
2022-12-18T02:58:52.848Z,40.50
2022-12-18T03:01:58.951Z,37.10
2022-12-18T03:04:34.433Z,33.70
2022-12-18T03:07:09.502Z,41.40
2022-12-18T03:09:42.281Z,38.40
2022-12-18T03:12:23.947Z,43.20
2022-12-18T03:15:19.202Z,38.00
2022-12-18T03:17:54.162Z,39.10
2022-12-18T03:20:23.875Z,44.60
2022-12-18T03:23:00.614Z,44.60
2022-12-18T03:25:29.216Z,39.80
2022-12-18T03:28:00.812Z,39.10
2022-12-18T03:30:31.073Z,39.00
2022-12-18T03:33:26.813Z,39.60
2022-12-18T03:35:54.622Z,45.00
2022-12-18T03:38:21.625Z,42.20
2022-12-18T03:41:16.355Z,36.60
2022-12-18T03:44:42.135Z,40.40
2022-12-18T03:47:21.514Z,43.00
2022-12-18T03:50:17.184Z,41.30
2022-12-18T03:53:00.449Z,45.60
2022-12-18T03:55:34.748Z,42.70
2022-12-18T03:58:06.018Z,43.90
2022-12-18T04:00:41.450Z,35.50
2022-12-18T04:03:10.110Z,44.10
2022-12-18T04:05:44.420Z,43.70
2022-12-18T04:08:11.831Z,39.30
2022-12-18T04:10:41.281Z,48.20
2022-12-18T04:13:07.991Z,41.50
2022-12-18T04:15:37.561Z,48.30
2022-12-18T04:18:05.068Z,44.40
2022-12-18T04:20:37.918Z,39.80
2022-12-18T04:23:04.658Z,42.60
2022-12-18T04:25:31.752Z,48.70
2022-12-18T04:28:11.333Z,41.00
2022-12-18T04:30:39.146Z,43.30
2022-12-18T04:33:10.933Z,40.80
2022-12-18T04:35:38.557Z,45.00
2022-12-18T04:38:07.921Z,49.80
2022-12-18T04:40:36.430Z,47.20
2022-12-18T04:43:04.148Z,44.50
2022-12-18T04:45:32.259Z,45.80
2022-12-18T04:48:00.310Z,48.50
2022-12-18T04:50:27.382Z,42.30
2022-12-18T04:52:54.638Z,45.60
2022-12-18T04:55:21.790Z,46.00
2022-12-18T04:57:48.498Z,57.00
2022-12-18T05:00:15.710Z,46.80
2022-12-18T05:02:42.734Z,49.60
2022-12-18T05:05:10.306Z,45.80
2022-12-18T05:07:37.226Z,51.20
2022-12-18T05:10:05.118Z,51.90
2022-12-18T05:12:32.825Z,48.90
2022-12-18T05:14:59.568Z,45.20
2022-12-18T05:17:26.319Z,49.90
2022-12-18T05:19:53.387Z,42.00
2022-12-18T05:22:20.049Z,44.20
2022-12-18T05:24:46.783Z,55.20
2022-12-18T05:27:13.479Z,48.20
2022-12-18T05:29:40.158Z,49.20
2022-12-18T05:32:07.514Z,44.90
2022-12-18T05:34:34.796Z,46.10
2022-12-18T05:37:01.541Z,45.00
2022-12-18T05:39:28.250Z,51.40
2022-12-18T05:41:54.938Z,43.70
2022-12-18T05:44:21.654Z,49.90
2022-12-18T05:46:48.425Z,50.20
2022-12-18T05:49:15.169Z,52.50
2022-12-18T05:51:41.942Z,52.40
2022-12-18T05:54:09.418Z,53.70
2022-12-18T05:56:37.016Z,48.40
2022-12-18T05:59:04.035Z,47.60
2022-12-18T06:01:30.894Z,57.20
2022-12-18T06:03:57.853Z,54.60
2022-12-18T06:06:27.610Z,58.00
2022-12-18T06:08:55.690Z,53.20
2022-12-18T06:11:25.818Z,49.20
2022-12-18T06:13:59.083Z,43.90
2022-12-18T06:16:30.325Z,41.80
2022-12-18T06:19:02.878Z,38.00
2022-12-18T06:21:30.470Z,50.60
2022-12-18T06:23:58.107Z,66.90
2022-12-18T06:26:28.409Z,66.20
2022-12-18T06:28:55.704Z,55.80
2022-12-18T06:31:22.562Z,34.90
2022-12-18T06:33:49.345Z,42.10
2022-12-18T06:36:17.629Z,41.20
2022-12-18T06:38:45.381Z,38.80
2022-12-18T06:41:16.101Z,44.90
2022-12-18T06:43:43.925Z,23.40
2022-12-18T06:46:11.457Z,42.20
2022-12-18T06:48:38.685Z,57.10
2022-12-18T06:51:05.903Z,66.10
2022-12-18T06:53:33.764Z,69.10
2022-12-18T06:56:10.341Z,73.00
2022-12-18T06:58:38.783Z,55.40
2022-12-18T07:01:08.428Z,58.70
2022-12-18T07:03:35.542Z,63.50
2022-12-18T07:06:02.487Z,59.70
2022-12-18T07:08:31.293Z,53.60
2022-12-18T07:10:58.244Z,65.60
2022-12-18T07:13:25.163Z,64.20
2022-12-18T07:15:51.861Z,60.00
2022-12-18T07:18:18.599Z,33.40
2022-12-18T07:20:45.299Z,37.40
2022-12-18T07:23:12.770Z,44.80
2022-12-18T07:25:40.494Z,47.70
2022-12-18T07:28:08.218Z,50.10
2022-12-18T07:30:39.412Z,60.60
2022-12-18T07:33:06.539Z,61.30
2022-12-18T07:35:35.025Z,67.10
2022-12-18T07:38:02.869Z,66.80
2022-12-18T07:40:29.697Z,36.40
2022-12-18T07:42:56.514Z,44.30
2022-12-18T07:45:23.209Z,50.20
2022-12-18T07:47:49.913Z,58.00
2022-12-18T07:50:16.802Z,57.60
2022-12-18T07:52:43.496Z,59.00
2022-12-18T07:55:10.251Z,52.90
2022-12-18T07:57:56.388Z,57.00
2022-12-18T08:00:24.114Z,69.40
2022-12-18T08:02:50.900Z,64.70
2022-12-18T08:05:18.038Z,58.00
2022-12-18T08:07:44.773Z,58.00
2022-12-18T08:10:11.841Z,59.90
2022-12-18T08:12:38.605Z,52.10
2022-12-18T08:15:06.025Z,45.90
2022-12-18T08:17:33.143Z,52.50
2022-12-18T08:19:59.838Z,55.30
2022-12-18T08:22:26.692Z,68.60
2022-12-18T08:24:53.481Z,85.60
2022-12-18T08:27:29.348Z,79.00
2022-12-18T08:29:57.193Z,40.50
2022-12-18T08:32:25.435Z,65.80
2022-12-18T08:34:52.266Z,60.40
2022-12-18T08:37:18.977Z,83.10
2022-12-18T08:39:46.209Z,72.60
2022-12-18T08:42:31.443Z,72.10
2022-12-18T08:45:00.816Z,75.50
2022-12-18T08:47:27.514Z,68.70
2022-12-18T08:49:54.394Z,76.70
2022-12-18T08:52:21.203Z,68.10
2022-12-18T08:54:47.928Z,70.50
2022-12-18T08:57:14.629Z,68.50
2022-12-18T08:59:41.319Z,66.80
2022-12-18T09:02:12.071Z,63.20
2022-12-18T09:04:40.832Z,67.80
2022-12-18T09:07:07.584Z,64.70
2022-12-18T09:09:34.353Z,67.90
2022-12-18T09:12:01.021Z,71.40
2022-12-18T09:14:27.742Z,70.50
2022-12-18T09:16:54.471Z,70.70
2022-12-18T09:19:21.243Z,76.10
2022-12-18T09:21:48.592Z,60.30
2022-12-18T09:24:16.753Z,64.70
2022-12-18T09:26:47.044Z,72.50
2022-12-18T09:29:16.906Z,61.60
2022-12-18T09:31:46.142Z,62.60
2022-12-18T09:34:13.044Z,51.60
2022-12-18T09:36:39.981Z,50.40
2022-12-18T09:39:08.871Z,63.30
2022-12-18T09:41:58.483Z,49.70
2022-12-18T09:44:47.078Z,52.30
2022-12-18T09:47:38.710Z,59.00
2022-12-18T09:50:26.234Z,65.60
2022-12-18T09:52:57.589Z,56.50
2022-12-18T09:55:37.259Z,63.30
2022-12-18T09:58:24.521Z,53.40
2022-12-18T10:00:54.197Z,53.20
2022-12-18T10:03:21.245Z,47.80
2022-12-18T10:06:20.074Z,57.50
2022-12-18T10:09:24.104Z,57.50
2022-12-18T10:12:24.161Z,63.60
2022-12-18T10:15:08.565Z,56.30
2022-12-18T10:18:01.267Z,58.20
2022-12-18T10:20:39.062Z,65.50
2022-12-18T10:24:01.472Z,58.30
2022-12-18T10:26:28.303Z,62.90
2022-12-18T10:28:56.946Z,56.90
2022-12-18T10:31:26.084Z,64.90
2022-12-18T10:33:55.431Z,66.30
2022-12-18T10:36:26.537Z,44.50
2022-12-18T10:38:53.276Z,27.60
2022-12-18T10:41:21.769Z,45.30
2022-12-18T10:43:49.126Z,37.00
2022-12-18T10:46:20.063Z,56.80
2022-12-18T10:48:49.609Z,45.70
2022-12-18T10:51:30.611Z,47.60
2022-12-18T10:54:03.572Z,44.50
2022-12-18T10:56:35.286Z,47.30
2022-12-18T10:59:03.572Z,44.00
2022-12-18T11:01:58.409Z,42.70
2022-12-18T11:04:28.897Z,43.90
2022-12-18T11:07:04.266Z,42.90
2022-12-18T11:09:36.817Z,42.90
2022-12-18T11:12:23.959Z,33.90
2022-12-18T11:14:53.453Z,34.10
2022-12-18T11:17:25.930Z,41.30
2022-12-18T11:19:56.370Z,45.80
2022-12-18T11:22:29.638Z,43.60
2022-12-18T11:25:33.101Z,38.80
2022-12-18T11:28:42.857Z,45.90
2022-12-18T11:31:20.139Z,42.60
2022-12-18T11:34:30.513Z,48.50
2022-12-18T11:36:59.344Z,21.90
2022-12-18T11:39:37.551Z,41.80
2022-12-18T11:42:46.894Z,45.10
2022-12-18T11:45:16.500Z,38.80
2022-12-18T11:48:25.665Z,41.00
2022-12-18T11:50:54.553Z,42.20
2022-12-18T11:53:22.180Z,41.20
2022-12-18T11:55:51.870Z,45.80
2022-12-18T11:58:31.556Z,49.80
2022-12-18T12:01:17.676Z,25.20
2022-12-18T12:04:18.027Z,37.50
2022-12-18T12:07:09.168Z,31.50
2022-12-18T12:09:59.481Z,38.00
2022-12-18T12:12:57.310Z,31.40
2022-12-18T12:15:29.908Z,44.20
2022-12-18T12:18:25.059Z,42.30
2022-12-18T12:21:24.896Z,49.00
2022-12-18T12:24:13.924Z,42.50
2022-12-18T12:27:18.614Z,61.60
2022-12-18T12:30:24.010Z,39.00
2022-12-18T12:33:01.047Z,31.60
2022-12-18T12:35:44.452Z,29.50
2022-12-18T12:38:20.882Z,28.40
2022-12-18T12:41:27.893Z,30.10
2022-12-18T12:43:58.864Z,33.40
2022-12-18T12:46:27.501Z,31.60
2022-12-18T12:48:58.048Z,31.10
2022-12-18T12:51:42.121Z,33.00
2022-12-18T12:54:35.564Z,30.30
2022-12-18T12:57:25.221Z,30.00
2022-12-18T13:00:13.524Z,34.40
2022-12-18T13:03:17.150Z,33.40
2022-12-18T13:05:55.420Z,30.50
2022-12-18T13:08:35.014Z,30.20
2022-12-18T13:11:21.150Z,30.00
2022-12-18T13:13:56.097Z,30.20
2022-12-18T13:16:28.575Z,31.50
2022-12-18T13:18:59.629Z,30.50
2022-12-18T13:21:34.856Z,31.40
2022-12-18T13:24:33.985Z,31.90
2022-12-18T13:27:00.695Z,33.40
2022-12-18T13:29:43.710Z,29.20
2022-12-18T13:32:26.797Z,30.80
2022-12-18T13:35:18.899Z,35.10
2022-12-18T13:37:54.107Z,34.00
2022-12-18T13:40:48.212Z,33.30
2022-12-18T13:43:20.612Z,31.50
2022-12-18T13:46:08.188Z,36.20
2022-12-18T13:48:39.232Z,31.40
2022-12-18T13:51:11.785Z,32.90
2022-12-18T13:54:14.970Z,35.50
2022-12-18T13:56:46.670Z,33.50
2022-12-18T13:59:25.304Z,33.50
2022-12-18T14:01:54.099Z,31.50
2022-12-18T14:04:41.387Z,29.50
2022-12-18T14:07:15.295Z,32.30
2022-12-18T14:09:47.940Z,33.60
2022-12-18T14:12:41.412Z,26.30
2022-12-18T14:15:27.454Z,28.50
2022-12-18T14:17:59.553Z,30.30
2022-12-18T14:20:29.168Z,31.70
2022-12-18T14:22:57.221Z,30.90
2022-12-18T14:25:30.882Z,25.00
2022-12-18T14:28:13.576Z,24.50
2022-12-18T14:30:43.351Z,37.80
2022-12-18T14:33:16.656Z,31.70
2022-12-18T14:35:56.312Z,25.80
2022-12-18T14:38:31.858Z,23.00
2022-12-18T14:41:06.275Z,28.60
2022-12-18T14:43:37.088Z,52.00
2022-12-18T14:46:07.271Z,61.50
2022-12-18T14:48:40.685Z,80.50
2022-12-18T14:51:19.105Z,88.90
2022-12-18T14:53:55.674Z,134.10
2022-12-18T14:56:51.352Z,87.80
2022-12-18T14:59:24.750Z,64.50
2022-12-18T15:01:54.853Z,55.00
2022-12-18T15:04:27.710Z,38.30
2022-12-18T15:07:23.182Z,82.60
2022-12-18T15:10:15.670Z,97.80
2022-12-18T15:12:48.722Z,75.60
2022-12-18T15:15:34.558Z,86.00
2022-12-18T15:18:08.681Z,125.90
2022-12-18T15:20:46.056Z,140.90
2022-12-18T15:23:23.319Z,130.10
2022-12-18T15:26:04.506Z,99.30
2022-12-18T15:28:39.104Z,145.70
2022-12-18T15:31:10.237Z,98.90
2022-12-18T15:33:43.064Z,98.90
2022-12-18T15:36:14.061Z,120.40
2022-12-18T15:38:41.318Z,129.00
2022-12-18T15:41:17.826Z,136.50
2022-12-18T15:43:51.387Z,138.60
2022-12-18T15:46:24.642Z,125.50
2022-12-18T15:49:01.472Z,90.90
2022-12-18T15:51:39.328Z,107.60
2022-12-18T15:54:14.004Z,100.60
2022-12-18T15:56:59.279Z,87.20
2022-12-18T15:59:26.117Z,91.80
2022-12-18T16:01:56.702Z,121.30
2022-12-18T16:04:24.579Z,54.60
2022-12-18T16:07:14.682Z,95.50
2022-12-18T16:09:39.755Z,91.50
2022-12-18T16:12:09.920Z,74.20
2022-12-18T16:14:36.624Z,107.90
2022-12-18T16:17:11.463Z,109.50
2022-12-18T16:19:38.199Z,138.60
2022-12-18T16:22:05.941Z,142.10
2022-12-18T16:24:37.159Z,178.80
2022-12-18T16:27:03.980Z,176.10
2022-12-18T16:29:30.931Z,211.40
2022-12-18T16:32:00.186Z,205.40
2022-12-18T16:34:35.426Z,170.80
2022-12-18T16:37:07.442Z,121.60
2022-12-18T16:39:35.731Z,155.50
2022-12-18T16:42:05.736Z,169.60
2022-12-18T16:44:34.526Z,95.90
2022-12-18T16:47:03.189Z,125.90
2022-12-18T16:49:30.973Z,104.20
2022-12-18T16:51:57.905Z,91.20
2022-12-18T16:54:25.088Z,50.20
2022-12-18T16:56:52.513Z,39.10
2022-12-18T16:59:19.934Z,39.70
2022-12-18T17:01:47.398Z,24.50
2022-12-18T17:04:14.957Z,34.30
2022-12-18T17:06:44.854Z,48.50
2022-12-18T17:09:17.147Z,49.80
2022-12-18T17:11:44.306Z,58.10
2022-12-18T17:14:20.850Z,30.10
2022-12-18T17:16:49.183Z,39.40
2022-12-18T17:19:21.903Z,28.50
2022-12-18T17:21:50.816Z,28.20
2022-12-18T17:24:18.812Z,30.70
2022-12-18T17:26:48.244Z,34.30
2022-12-18T17:29:21.327Z,41.20
2022-12-18T17:31:50.331Z,53.40
2022-12-18T17:34:17.116Z,57.40
2022-12-18T17:36:43.961Z,66.20
2022-12-18T17:39:19.354Z,61.30
2022-12-18T17:41:46.622Z,43.50
2022-12-18T17:44:13.447Z,113.90
2022-12-18T17:46:40.977Z,90.70
2022-12-18T17:49:07.909Z,100.60
2022-12-18T17:51:34.729Z,96.50
2022-12-18T17:54:01.457Z,85.30
2022-12-18T17:56:28.244Z,138.30
2022-12-18T17:58:55.537Z,29.40
2022-12-18T18:01:25.458Z,63.60
2022-12-18T18:03:54.192Z,80.50
2022-12-18T18:06:22.670Z,90.00
2022-12-18T18:08:49.598Z,56.60
2022-12-18T18:11:38.189Z,44.10
2022-12-18T18:14:21.365Z,63.20
2022-12-18T18:16:51.002Z,51.70
2022-12-18T18:19:24.352Z,101.40
2022-12-18T18:21:53.968Z,33.50
2022-12-18T18:24:23.722Z,65.20
2022-12-18T18:26:50.618Z,35.90
2022-12-18T18:29:23.087Z,40.50
2022-12-18T18:31:51.291Z,50.60
2022-12-18T18:34:25.343Z,74.20
2022-12-18T18:36:52.652Z,84.70
2022-12-18T18:39:20.008Z,94.70
2022-12-18T18:41:47.913Z,90.10
2022-12-18T18:44:24.439Z,85.70
2022-12-18T18:46:55.398Z,60.20
2022-12-18T18:49:27.688Z,87.50
2022-12-18T18:51:56.744Z,87.00
2022-12-18T18:54:24.544Z,94.60
2022-12-18T18:59:38.566Z,55.50
2022-12-18T19:02:05.479Z,63.50
2022-12-18T19:04:34.036Z,58.40
2022-12-18T19:07:01.250Z,61.90
2022-12-18T19:09:28.561Z,94.10
2022-12-18T19:12:14.441Z,120.80
2022-12-18T19:14:41.322Z,128.50
2022-12-18T19:17:08.286Z,116.00
2022-12-18T19:19:35.613Z,94.20
2022-12-18T19:22:03.653Z,95.90
2022-12-18T19:24:30.464Z,92.10
2022-12-18T19:26:58.229Z,103.00
2022-12-18T19:29:25.149Z,96.50
2022-12-18T19:31:51.942Z,88.70
2022-12-18T19:34:18.807Z,65.10
2022-12-18T19:36:45.542Z,113.60
2022-12-18T19:39:17.016Z,108.80
2022-12-18T19:41:44.515Z,78.90
2022-12-18T19:44:14.361Z,96.20
2022-12-18T19:46:42.942Z,108.70
2022-12-18T19:49:11.236Z,86.80
2022-12-18T19:51:40.276Z,84.80
2022-12-18T19:54:07.006Z,105.40
2022-12-18T19:56:35.239Z,81.20
2022-12-18T19:59:04.558Z,106.90
2022-12-18T20:01:31.764Z,119.20
2022-12-18T20:04:00.339Z,92.10
2022-12-18T20:06:53.443Z,99.90
2022-12-18T20:09:21.626Z,64.80
2022-12-18T20:11:49.194Z,116.90
2022-12-18T20:14:22.338Z,106.00
2022-12-18T20:16:52.375Z,103.70
2022-12-18T20:19:19.436Z,47.50
2022-12-18T20:21:46.508Z,91.90
2022-12-18T20:24:13.310Z,36.40
2022-12-18T20:26:40.691Z,77.20
2022-12-18T20:29:07.446Z,84.60
2022-12-18T20:31:34.178Z,79.80
2022-12-18T20:34:02.702Z,75.50
2022-12-18T20:36:32.948Z,58.80
2022-12-18T20:39:02.631Z,64.10
2022-12-18T20:41:37.698Z,79.80
2022-12-18T20:44:22.547Z,46.80
2022-12-18T20:46:57.226Z,56.50
2022-12-18T20:49:26.578Z,80.70
2022-12-18T20:51:56.428Z,31.70
2022-12-18T20:54:26.147Z,82.80
2022-12-18T20:56:52.907Z,84.20
2022-12-18T20:59:20.072Z,111.50
2022-12-18T21:01:48.647Z,124.60
2022-12-18T21:04:19.170Z,88.60
2022-12-18T21:06:52.376Z,53.50
2022-12-18T21:09:21.139Z,69.00
2022-12-18T21:12:06.619Z,74.70
2022-12-18T21:14:33.684Z,69.00
2022-12-18T21:17:03.734Z,210.00
2022-12-18T21:19:30.602Z,111.70
2022-12-18T21:21:58.215Z,121.50
2022-12-18T21:24:26.152Z,82.70
2022-12-18T21:26:54.961Z,45.60
2022-12-18T21:29:24.920Z,40.90
2022-12-18T21:31:54.305Z,29.10
2022-12-18T21:34:28.209Z,57.20
2022-12-18T21:36:57.654Z,118.30
2022-12-18T21:39:25.842Z,167.60
2022-12-18T21:42:11.709Z,186.70
2022-12-18T21:44:42.008Z,220.30
2022-12-18T21:47:21.570Z,217.20
2022-12-18T21:49:49.575Z,140.30
2022-12-18T21:52:16.849Z,195.20
2022-12-18T21:54:43.682Z,196.50
2022-12-18T21:57:13.415Z,228.50
2022-12-18T21:59:43.276Z,280.90
2022-12-18T22:02:28.287Z,221.40
2022-12-18T22:04:55.141Z,368.40
2022-12-18T22:07:21.974Z,288.00
2022-12-18T22:09:49.829Z,341.70
2022-12-18T22:12:35.499Z,197.30
2022-12-18T22:15:05.138Z,270.50
2022-12-18T22:17:31.968Z,279.90
2022-12-18T22:19:58.778Z,295.70
2022-12-18T22:22:25.501Z,193.30
2022-12-18T22:24:52.218Z,109.80
2022-12-18T22:27:19.515Z,64.30
2022-12-18T22:30:04.248Z,68.40
2022-12-18T22:32:35.862Z,120.80
2022-12-18T22:35:10.477Z,270.40
2022-12-18T22:37:41.008Z,178.80
2022-12-18T22:40:12.956Z,119.00
2022-12-18T22:42:40.609Z,167.80
2022-12-18T22:45:07.987Z,139.70
2022-12-18T22:47:34.727Z,282.30
2022-12-18T22:50:01.432Z,168.60
2022-12-18T22:52:28.212Z,129.20
2022-12-18T22:54:54.886Z,196.90
2022-12-18T22:57:25.178Z,253.20
2022-12-18T22:59:51.915Z,206.20
2022-12-18T23:02:19.829Z,195.10
2022-12-18T23:04:47.726Z,240.90
2022-12-18T23:07:15.624Z,179.10
2022-12-18T23:09:43.001Z,269.10
2022-12-18T23:12:16.613Z,116.80
2022-12-18T23:14:43.470Z,190.30
2022-12-18T23:17:10.325Z,111.70
2022-12-18T23:19:37.156Z,153.70
2022-12-18T23:22:08.602Z,189.60
2022-12-18T23:24:38.271Z,110.30
2022-12-18T23:27:05.729Z,177.10
2022-12-18T23:29:36.780Z,245.70
2022-12-18T23:32:03.603Z,213.20
2022-12-18T23:34:30.373Z,201.80
2022-12-18T23:36:57.578Z,185.90
2022-12-18T23:39:28.899Z,214.60
2022-12-18T23:42:00.864Z,164.10
2022-12-18T23:44:28.180Z,183.40
2022-12-18T23:46:55.477Z,161.30
2022-12-18T23:49:22.988Z,134.90
2022-12-18T23:51:50.334Z,146.40
2022-12-18T23:54:17.398Z,178.60
2022-12-18T23:56:49.164Z,193.10
2022-12-18T23:59:15.872Z,181.00
